sensor_id;sensor_type;location;lat;lon;timestamp;P1;durP1;ratioP1;P2;durP2;ratioP2
66972;SDS011;53902;51.466;-2.586;2022-12-10T00:01:03;23.40;;;14.60;;
66972;SDS011;53902;51.466;-2.586;2022-12-10T00:03:34;21.30;;;14.60;;
66972;SDS011;53902;51.466;-2.586;2022-12-10T00:06:00;32.65;;;16.27;;
66972;SDS011;53902;51.466;-2.586;2022-12-10T00:08:27;28.15;;;14.10;;
66972;SDS011;53902;51.466;-2.586;2022-12-10T00:10:52;22.25;;;13.23;;
66972;SDS011;53902;51.466;-2.586;2022-12-10T00:13:17;24.35;;;14.18;;
66972;SDS011;53902;51.466;-2.586;2022-12-10T00:15:46;23.77;;;15.18;;
66972;SDS011;53902;51.466;-2.586;2022-12-10T00:18:11;23.67;;;14.45;;
66972;SDS011;53902;51.466;-2.586;2022-12-10T00:20:37;24.55;;;15.02;;
66972;SDS011;53902;51.466;-2.586;2022-12-10T00:23:04;29.15;;;13.60;;
66972;SDS011;53902;51.466;-2.586;2022-12-10T00:25:31;21.58;;;14.35;;
66972;SDS011;53902;51.466;-2.586;2022-12-10T00:27:56;23.35;;;14.23;;
66972;SDS011;53902;51.466;-2.586;2022-12-10T00:30:22;30.95;;;15.50;;
66972;SDS011;53902;51.466;-2.586;2022-12-10T00:32:47;27.25;;;13.90;;
66972;SDS011;53902;51.466;-2.586;2022-12-10T00:35:13;28.85;;;15.75;;
66972;SDS011;53902;51.466;-2.586;2022-12-10T00:37:38;20.38;;;12.00;;
66972;SDS011;53902;51.466;-2.586;2022-12-10T00:40:06;21.77;;;12.85;;
66972;SDS011;53902;51.466;-2.586;2022-12-10T00:42:32;25.80;;;13.10;;
66972;SDS011;53902;51.466;-2.586;2022-12-10T00:44:57;26.95;;;15.27;;
66972;SDS011;53902;51.466;-2.586;2022-12-10T00:47:23;19.77;;;12.30;;
66972;SDS011;53902;51.466;-2.586;2022-12-10T00:49:51;23.40;;;13.73;;
66972;SDS011;53902;51.466;-2.586;2022-12-10T00:52:16;27.95;;;14.50;;
66972;SDS011;53902;51.466;-2.586;2022-12-10T00:54:42;18.30;;;11.95;;
66972;SDS011;53902;51.466;-2.586;2022-12-10T00:57:07;20.23;;;12.18;;
66972;SDS011;53902;51.466;-2.586;2022-12-10T00:59:33;21.30;;;12.82;;
66972;SDS011;53902;51.466;-2.586;2022-12-10T01:01:58;20.85;;;12.40;;
66972;SDS011;53902;51.466;-2.586;2022-12-10T01:04:23;27.00;;;14.20;;
66972;SDS011;53902;51.466;-2.586;2022-12-10T01:06:50;29.58;;;13.07;;
66972;SDS011;53902;51.466;-2.586;2022-12-10T01:11:44;14.95;;;10.23;;
66972;SDS011;53902;51.466;-2.586;2022-12-10T01:14:12;19.67;;;11.30;;
66972;SDS011;53902;51.466;-2.586;2022-12-10T01:16:46;19.80;;;11.98;;
66972;SDS011;53902;51.466;-2.586;2022-12-10T01:19:11;17.35;;;11.23;;
66972;SDS011;53902;51.466;-2.586;2022-12-10T01:21:37;24.85;;;14.18;;
66972;SDS011;53902;51.466;-2.586;2022-12-10T01:24:05;19.23;;;14.68;;
66972;SDS011;53902;51.466;-2.586;2022-12-10T01:26:32;23.85;;;13.45;;
66972;SDS011;53902;51.466;-2.586;2022-12-10T01:28:58;23.83;;;12.13;;
66972;SDS011;53902;51.466;-2.586;2022-12-10T01:33:54;19.65;;;12.02;;
66972;SDS011;53902;51.466;-2.586;2022-12-10T01:36:24;20.88;;;11.45;;
66972;SDS011;53902;51.466;-2.586;2022-12-10T01:38:51;21.85;;;14.95;;
66972;SDS011;53902;51.466;-2.586;2022-12-10T01:41:23;19.95;;;12.38;;
66972;SDS011;53902;51.466;-2.586;2022-12-10T01:46:32;18.33;;;12.73;;
66972;SDS011;53902;51.466;-2.586;2022-12-10T01:49:03;21.65;;;13.05;;
66972;SDS011;53902;51.466;-2.586;2022-12-10T01:51:32;25.95;;;12.00;;
66972;SDS011;53902;51.466;-2.586;2022-12-10T01:54:06;19.45;;;12.52;;
66972;SDS011;53902;51.466;-2.586;2022-12-10T01:56:35;36.40;;;14.20;;
66972;SDS011;53902;51.466;-2.586;2022-12-10T01:59:04;17.00;;;11.55;;
66972;SDS011;53902;51.466;-2.586;2022-12-10T02:01:39;21.25;;;12.63;;
66972;SDS011;53902;51.466;-2.586;2022-12-10T02:07:13;21.42;;;10.68;;
66972;SDS011;53902;51.466;-2.586;2022-12-10T02:12:29;18.23;;;11.37;;
66972;SDS011;53902;51.466;-2.586;2022-12-10T02:15:44;17.52;;;9.77;;
66972;SDS011;53902;51.466;-2.586;2022-12-10T02:18:10;18.35;;;10.13;;
66972;SDS011;53902;51.466;-2.586;2022-12-10T02:20:47;12.93;;;9.23;;
66972;SDS011;53902;51.466;-2.586;2022-12-10T02:23:26;24.02;;;11.45;;
66972;SDS011;53902;51.466;-2.586;2022-12-10T02:31:26;10.32;;;7.65;;
66972;SDS011;53902;51.466;-2.586;2022-12-10T02:33:55;13.40;;;10.48;;
66972;SDS011;53902;51.466;-2.586;2022-12-10T02:36:24;13.73;;;7.93;;
66972;SDS011;53902;51.466;-2.586;2022-12-10T02:38:54;19.13;;;12.23;;
66972;SDS011;53902;51.466;-2.586;2022-12-10T02:41:25;13.93;;;9.82;;
66972;SDS011;53902;51.466;-2.586;2022-12-10T02:43:56;19.60;;;9.65;;
66972;SDS011;53902;51.466;-2.586;2022-12-10T02:46:26;19.38;;;9.65;;
66972;SDS011;53902;51.466;-2.586;2022-12-10T02:48:53;13.50;;;9.18;;
66972;SDS011;53902;51.466;-2.586;2022-12-10T02:51:19;14.10;;;7.97;;
66972;SDS011;53902;51.466;-2.586;2022-12-10T02:53:47;13.20;;;7.90;;
66972;SDS011;53902;51.466;-2.586;2022-12-10T02:56:24;12.20;;;8.57;;
66972;SDS011;53902;51.466;-2.586;2022-12-10T02:59:04;13.38;;;8.10;;
66972;SDS011;53902;51.466;-2.586;2022-12-10T03:04:36;12.95;;;8.05;;
66972;SDS011;53902;51.466;-2.586;2022-12-10T03:07:23;13.85;;;7.82;;
66972;SDS011;53902;51.466;-2.586;2022-12-10T03:09:53;13.82;;;8.10;;
66972;SDS011;53902;51.466;-2.586;2022-12-10T03:12:31;17.95;;;7.85;;
66972;SDS011;53902;51.466;-2.586;2022-12-10T03:15:00;15.32;;;7.07;;
66972;SDS011;53902;51.466;-2.586;2022-12-10T03:17:30;12.13;;;8.23;;
66972;SDS011;53902;51.466;-2.586;2022-12-10T03:19:57;17.95;;;7.95;;
66972;SDS011;53902;51.466;-2.586;2022-12-10T03:22:24;11.97;;;7.77;;
66972;SDS011;53902;51.466;-2.586;2022-12-10T03:24:49;9.18;;;6.68;;
66972;SDS011;53902;51.466;-2.586;2022-12-10T03:27:15;12.70;;;6.63;;
66972;SDS011;53902;51.466;-2.586;2022-12-10T03:29:44;7.10;;;5.65;;
66972;SDS011;53902;51.466;-2.586;2022-12-10T03:32:12;7.70;;;5.50;;
66972;SDS011;53902;51.466;-2.586;2022-12-10T03:34:41;9.98;;;7.22;;
66972;SDS011;53902;51.466;-2.586;2022-12-10T03:37:08;11.43;;;6.97;;
66972;SDS011;53902;51.466;-2.586;2022-12-10T03:39:41;9.07;;;6.88;;
66972;SDS011;53902;51.466;-2.586;2022-12-10T03:42:17;13.02;;;8.15;;
66972;SDS011;53902;51.466;-2.586;2022-12-10T03:44:43;10.80;;;7.32;;
66972;SDS011;53902;51.466;-2.586;2022-12-10T03:47:10;13.15;;;7.95;;
66972;SDS011;53902;51.466;-2.586;2022-12-10T03:49:37;11.95;;;8.27;;
66972;SDS011;53902;51.466;-2.586;2022-12-10T03:52:03;18.08;;;8.68;;
66972;SDS011;53902;51.466;-2.586;2022-12-10T03:54:37;13.93;;;8.05;;
66972;SDS011;53902;51.466;-2.586;2022-12-10T03:57:02;13.30;;;7.57;;
66972;SDS011;53902;51.466;-2.586;2022-12-10T03:59:28;9.60;;;7.28;;
66972;SDS011;53902;51.466;-2.586;2022-12-10T04:01:55;11.20;;;7.30;;
66972;SDS011;53902;51.466;-2.586;2022-12-10T04:04:21;13.20;;;7.32;;
66972;SDS011;53902;51.466;-2.586;2022-12-10T04:06:50;12.95;;;8.73;;
66972;SDS011;53902;51.466;-2.586;2022-12-10T04:09:15;12.73;;;7.40;;
66972;SDS011;53902;51.466;-2.586;2022-12-10T04:11:44;13.93;;;8.45;;
66972;SDS011;53902;51.466;-2.586;2022-12-10T04:14:10;11.90;;;7.80;;
66972;SDS011;53902;51.466;-2.586;2022-12-10T04:19:22;8.75;;;6.28;;
66972;SDS011;53902;51.466;-2.586;2022-12-10T04:21:47;7.75;;;4.88;;
66972;SDS011;53902;51.466;-2.586;2022-12-10T04:24:35;18.08;;;7.95;;
66972;SDS011;53902;51.466;-2.586;2022-12-10T04:27:21;7.35;;;5.93;;
66972;SDS011;53902;51.466;-2.586;2022-12-10T04:29:54;10.43;;;6.75;;
66972;SDS011;53902;51.466;-2.586;2022-12-10T04:32:21;8.98;;;7.07;;
66972;SDS011;53902;51.466;-2.586;2022-12-10T04:34:47;9.90;;;7.87;;
66972;SDS011;53902;51.466;-2.586;2022-12-10T04:37:13;8.07;;;6.30;;
66972;SDS011;53902;51.466;-2.586;2022-12-10T04:39:38;13.95;;;6.82;;
66972;SDS011;53902;51.466;-2.586;2022-12-10T04:42:04;9.95;;;6.30;;
66972;SDS011;53902;51.466;-2.586;2022-12-10T04:44:30;10.82;;;7.50;;
66972;SDS011;53902;51.466;-2.586;2022-12-10T04:46:58;13.52;;;7.60;;
66972;SDS011;53902;51.466;-2.586;2022-12-10T04:49:24;8.93;;;6.03;;
66972;SDS011;53902;51.466;-2.586;2022-12-10T04:51:49;17.20;;;8.63;;
66972;SDS011;53902;51.466;-2.586;2022-12-10T04:54:15;9.02;;;5.95;;
66972;SDS011;53902;51.466;-2.586;2022-12-10T04:56:44;8.82;;;6.97;;
66972;SDS011;53902;51.466;-2.586;2022-12-10T04:59:12;20.42;;;10.45;;
66972;SDS011;53902;51.466;-2.586;2022-12-10T05:01:37;14.55;;;8.63;;
66972;SDS011;53902;51.466;-2.586;2022-12-10T05:04:04;8.93;;;6.88;;
66972;SDS011;53902;51.466;-2.586;2022-12-10T05:08:56;13.18;;;7.03;;
66972;SDS011;53902;51.466;-2.586;2022-12-10T05:11:23;9.25;;;7.13;;
66972;SDS011;53902;51.466;-2.586;2022-12-10T05:13:53;9.35;;;7.07;;
66972;SDS011;53902;51.466;-2.586;2022-12-10T05:16:22;7.65;;;6.43;;
66972;SDS011;53902;51.466;-2.586;2022-12-10T05:18:49;15.07;;;6.90;;
66972;SDS011;53902;51.466;-2.586;2022-12-10T05:21:15;15.70;;;7.90;;
66972;SDS011;53902;51.466;-2.586;2022-12-10T05:23:43;8.43;;;6.93;;
66972;SDS011;53902;51.466;-2.586;2022-12-10T05:26:10;10.10;;;7.18;;
66972;SDS011;53902;51.466;-2.586;2022-12-10T05:28:46;10.30;;;7.00;;
66972;SDS011;53902;51.466;-2.586;2022-12-10T05:31:12;8.70;;;6.40;;
66972;SDS011;53902;51.466;-2.586;2022-12-10T05:33:46;9.55;;;5.78;;
66972;SDS011;53902;51.466;-2.586;2022-12-10T05:36:30;9.75;;;6.15;;
66972;SDS011;53902;51.466;-2.586;2022-12-10T05:38:58;8.80;;;7.55;;
66972;SDS011;53902;51.466;-2.586;2022-12-10T05:41:25;16.25;;;8.68;;
66972;SDS011;53902;51.466;-2.586;2022-12-10T05:43:56;12.95;;;5.65;;
66972;SDS011;53902;51.466;-2.586;2022-12-10T05:46:27;10.23;;;6.63;;
66972;SDS011;53902;51.466;-2.586;2022-12-10T05:48:54;8.82;;;6.32;;
66972;SDS011;53902;51.466;-2.586;2022-12-10T05:51:23;14.60;;;8.75;;
66972;SDS011;53902;51.466;-2.586;2022-12-10T05:53:50;11.57;;;6.93;;
66972;SDS011;53902;51.466;-2.586;2022-12-10T05:56:17;8.13;;;5.67;;
66972;SDS011;53902;51.466;-2.586;2022-12-10T05:58:45;9.30;;;6.32;;
66972;SDS011;53902;51.466;-2.586;2022-12-10T06:01:15;9.23;;;5.95;;
66972;SDS011;53902;51.466;-2.586;2022-12-10T06:03:42;10.70;;;7.65;;
66972;SDS011;53902;51.466;-2.586;2022-12-10T06:06:08;14.68;;;7.75;;
66972;SDS011;53902;51.466;-2.586;2022-12-10T06:08:34;13.18;;;6.43;;
66972;SDS011;53902;51.466;-2.586;2022-12-10T06:11:07;11.27;;;7.25;;
66972;SDS011;53902;51.466;-2.586;2022-12-10T06:13:37;11.07;;;6.13;;
66972;SDS011;53902;51.466;-2.586;2022-12-10T06:16:04;6.97;;;6.13;;
66972;SDS011;53902;51.466;-2.586;2022-12-10T06:18:33;8.25;;;5.82;;
66972;SDS011;53902;51.466;-2.586;2022-12-10T06:21:02;9.70;;;6.43;;
66972;SDS011;53902;51.466;-2.586;2022-12-10T06:23:29;11.52;;;7.32;;
66972;SDS011;53902;51.466;-2.586;2022-12-10T06:25:54;15.25;;;7.53;;
66972;SDS011;53902;51.466;-2.586;2022-12-10T06:28:19;13.40;;;5.90;;
66972;SDS011;53902;51.466;-2.586;2022-12-10T06:30:45;11.68;;;6.40;;
66972;SDS011;53902;51.466;-2.586;2022-12-10T06:33:10;8.70;;;6.20;;
66972;SDS011;53902;51.466;-2.586;2022-12-10T06:35:36;14.38;;;7.82;;
66972;SDS011;53902;51.466;-2.586;2022-12-10T06:38:04;9.85;;;6.63;;
66972;SDS011;53902;51.466;-2.586;2022-12-10T06:40:32;12.75;;;6.75;;
66972;SDS011;53902;51.466;-2.586;2022-12-10T06:42:57;10.75;;;6.25;;
66972;SDS011;53902;51.466;-2.586;2022-12-10T06:45:23;11.32;;;7.05;;
66972;SDS011;53902;51.466;-2.586;2022-12-10T06:47:48;9.80;;;6.25;;
66972;SDS011;53902;51.466;-2.586;2022-12-10T06:50:13;15.05;;;7.40;;
66972;SDS011;53902;51.466;-2.586;2022-12-10T06:52:41;8.30;;;5.53;;
66972;SDS011;53902;51.466;-2.586;2022-12-10T06:55:07;9.60;;;6.60;;
66972;SDS011;53902;51.466;-2.586;2022-12-10T06:57:32;8.30;;;5.20;;
66972;SDS011;53902;51.466;-2.586;2022-12-10T06:59:58;9.88;;;5.53;;
66972;SDS011;53902;51.466;-2.586;2022-12-10T07:02:26;9.32;;;6.00;;
66972;SDS011;53902;51.466;-2.586;2022-12-10T07:04:51;11.00;;;5.35;;
66972;SDS011;53902;51.466;-2.586;2022-12-10T07:07:17;8.30;;;5.28;;
66972;SDS011;53902;51.466;-2.586;2022-12-10T07:09:42;7.57;;;4.90;;
66972;SDS011;53902;51.466;-2.586;2022-12-10T07:12:08;11.57;;;5.38;;
66972;SDS011;53902;51.466;-2.586;2022-12-10T07:14:33;6.15;;;4.93;;
66972;SDS011;53902;51.466;-2.586;2022-12-10T07:17:01;6.65;;;5.25;;
66972;SDS011;53902;51.466;-2.586;2022-12-10T07:19:27;5.70;;;5.10;;
66972;SDS011;53902;51.466;-2.586;2022-12-10T07:21:52;9.13;;;6.07;;
66972;SDS011;53902;51.466;-2.586;2022-12-10T07:24:18;14.80;;;5.43;;
66972;SDS011;53902;51.466;-2.586;2022-12-10T07:26:44;4.95;;;4.22;;
66972;SDS011;53902;51.466;-2.586;2022-12-10T07:29:17;10.02;;;5.53;;
66972;SDS011;53902;51.466;-2.586;2022-12-10T07:31:44;9.27;;;5.90;;
66972;SDS011;53902;51.466;-2.586;2022-12-10T07:34:10;7.68;;;5.10;;
66972;SDS011;53902;51.466;-2.586;2022-12-10T07:36:36;7.13;;;4.33;;
66972;SDS011;53902;51.466;-2.586;2022-12-10T07:39:05;6.35;;;5.18;;
66972;SDS011;53902;51.466;-2.586;2022-12-10T07:41:33;5.30;;;4.65;;
66972;SDS011;53902;51.466;-2.586;2022-12-10T07:43:58;8.82;;;4.60;;
66972;SDS011;53902;51.466;-2.586;2022-12-10T07:46:25;7.72;;;5.57;;
66972;SDS011;53902;51.466;-2.586;2022-12-10T07:48:55;5.88;;;4.68;;
66972;SDS011;53902;51.466;-2.586;2022-12-10T07:51:21;8.88;;;5.38;;
66972;SDS011;53902;51.466;-2.586;2022-12-10T07:53:47;8.70;;;5.45;;
66972;SDS011;53902;51.466;-2.586;2022-12-10T07:56:15;11.98;;;5.35;;
66972;SDS011;53902;51.466;-2.586;2022-12-10T07:58:43;19.98;;;5.90;;
66972;SDS011;53902;51.466;-2.586;2022-12-10T08:01:11;6.82;;;5.43;;
66972;SDS011;53902;51.466;-2.586;2022-12-10T08:03:37;12.02;;;5.28;;
66972;SDS011;53902;51.466;-2.586;2022-12-10T08:06:04;8.55;;;4.40;;
66972;SDS011;53902;51.466;-2.586;2022-12-10T08:08:34;6.95;;;5.90;;
66972;SDS011;53902;51.466;-2.586;2022-12-10T08:11:01;7.15;;;4.75;;
66972;SDS011;53902;51.466;-2.586;2022-12-10T08:13:29;9.38;;;5.13;;
66972;SDS011;53902;51.466;-2.586;2022-12-10T08:16:02;5.40;;;4.63;;
66972;SDS011;53902;51.466;-2.586;2022-12-10T08:18:31;5.28;;;4.78;;
66972;SDS011;53902;51.466;-2.586;2022-12-10T08:20:56;7.78;;;5.55;;
66972;SDS011;53902;51.466;-2.586;2022-12-10T08:23:23;2.55;;;2.33;;
66972;SDS011;53902;51.466;-2.586;2022-12-10T08:25:48;3.90;;;1.85;;
66972;SDS011;53902;51.466;-2.586;2022-12-10T08:28:14;2.00;;;1.55;;
66972;SDS011;53902;51.466;-2.586;2022-12-10T08:30:40;1.55;;;1.45;;
66972;SDS011;53902;51.466;-2.586;2022-12-10T08:33:10;1.55;;;1.45;;
66972;SDS011;53902;51.466;-2.586;2022-12-10T08:35:36;1.20;;;1.13;;
66972;SDS011;53902;51.466;-2.586;2022-12-10T08:38:03;0.93;;;0.93;;
66972;SDS011;53902;51.466;-2.586;2022-12-10T08:40:29;1.85;;;1.25;;
66972;SDS011;53902;51.466;-2.586;2022-12-10T08:42:54;1.00;;;0.82;;
66972;SDS011;53902;51.466;-2.586;2022-12-10T08:45:23;0.75;;;0.47;;
66972;SDS011;53902;51.466;-2.586;2022-12-10T08:47:48;2.50;;;0.70;;
66972;SDS011;53902;51.466;-2.586;2022-12-10T08:58:00;1.30;;;0.70;;
66972;SDS011;53902;51.466;-2.586;2022-12-10T09:00:25;1.08;;;0.82;;
66972;SDS011;53902;51.466;-2.586;2022-12-10T09:02:51;1.42;;;1.33;;
66972;SDS011;53902;51.466;-2.586;2022-12-10T09:05:17;1.30;;;0.98;;
66972;SDS011;53902;51.466;-2.586;2022-12-10T09:07:42;2.03;;;1.33;;
66972;SDS011;53902;51.466;-2.586;2022-12-10T09:10:11;1.98;;;0.77;;
66972;SDS011;53902;51.466;-2.586;2022-12-10T09:12:37;0.68;;;0.68;;
66972;SDS011;53902;51.466;-2.586;2022-12-10T09:15:02;1.50;;;1.00;;
66972;SDS011;53902;51.466;-2.586;2022-12-10T09:17:28;2.50;;;1.60;;
66972;SDS011;53902;51.466;-2.586;2022-12-10T09:19:54;1.92;;;0.65;;
66972;SDS011;53902;51.466;-2.586;2022-12-10T09:22:19;1.48;;;0.98;;
66972;SDS011;53902;51.466;-2.586;2022-12-10T09:24:45;2.00;;;1.25;;
66972;SDS011;53902;51.466;-2.586;2022-12-10T09:27:10;1.77;;;1.20;;
66972;SDS011;53902;51.466;-2.586;2022-12-10T09:29:35;2.03;;;1.73;;
66972;SDS011;53902;51.466;-2.586;2022-12-10T09:32:01;1.23;;;1.10;;
66972;SDS011;53902;51.466;-2.586;2022-12-10T09:34:26;1.80;;;1.33;;
66972;SDS011;53902;51.466;-2.586;2022-12-10T09:36:54;2.35;;;1.60;;
66972;SDS011;53902;51.466;-2.586;2022-12-10T09:39:20;3.30;;;1.60;;
66972;SDS011;53902;51.466;-2.586;2022-12-10T09:42:04;2.80;;;2.08;;
66972;SDS011;53902;51.466;-2.586;2022-12-10T09:47:31;1.48;;;1.38;;
66972;SDS011;53902;51.466;-2.586;2022-12-10T09:50:16;3.78;;;1.92;;
66972;SDS011;53902;51.466;-2.586;2022-12-10T09:52:45;3.60;;;2.42;;
66972;SDS011;53902;51.466;-2.586;2022-12-10T09:57:45;4.53;;;2.97;;
66972;SDS011;53902;51.466;-2.586;2022-12-10T10:00:19;6.63;;;2.97;;
66972;SDS011;53902;51.466;-2.586;2022-12-10T10:02:45;6.20;;;4.35;;
66972;SDS011;53902;51.466;-2.586;2022-12-10T10:05:25;5.93;;;3.70;;
66972;SDS011;53902;51.466;-2.586;2022-12-10T10:07:53;6.00;;;3.22;;
66972;SDS011;53902;51.466;-2.586;2022-12-10T10:12:45;6.63;;;3.13;;
66972;SDS011;53902;51.466;-2.586;2022-12-10T10:15:15;4.88;;;3.20;;
66972;SDS011;53902;51.466;-2.586;2022-12-10T10:17:42;8.93;;;2.67;;
66972;SDS011;53902;51.466;-2.586;2022-12-10T10:20:14;3.17;;;2.35;;
66972;SDS011;53902;51.466;-2.586;2022-12-10T10:22:43;1.92;;;1.63;;
66972;SDS011;53902;51.466;-2.586;2022-12-10T10:25:15;1.45;;;1.17;;
66972;SDS011;53902;51.466;-2.586;2022-12-10T10:27:42;4.22;;;1.23;;
66972;SDS011;53902;51.466;-2.586;2022-12-10T10:30:16;1.30;;;0.80;;
66972;SDS011;53902;51.466;-2.586;2022-12-10T10:35:18;0.68;;;0.68;;
66972;SDS011;53902;51.466;-2.586;2022-12-10T10:38:05;9.80;;;1.02;;
66972;SDS011;53902;51.466;-2.586;2022-12-10T10:40:32;0.52;;;0.52;;
66972;SDS011;53902;51.466;-2.586;2022-12-10T10:43:04;1.02;;;0.73;;
66972;SDS011;53902;51.466;-2.586;2022-12-10T10:45:38;1.40;;;1.10;;
66972;SDS011;53902;51.466;-2.586;2022-12-10T10:50:40;1.25;;;0.88;;
66972;SDS011;53902;51.466;-2.586;2022-12-10T10:56:11;1.23;;;1.10;;
66972;SDS011;53902;51.466;-2.586;2022-12-10T10:58:56;0.63;;;0.63;;
66972;SDS011;53902;51.466;-2.586;2022-12-10T11:01:23;1.80;;;1.02;;
66972;SDS011;53902;51.466;-2.586;2022-12-10T11:06:18;0.88;;;0.88;;
66972;SDS011;53902;51.466;-2.586;2022-12-10T11:08:56;2.72;;;0.82;;
66972;SDS011;53902;51.466;-2.586;2022-12-10T11:11:25;1.20;;;0.85;;
66972;SDS011;53902;51.466;-2.586;2022-12-10T11:16:57;5.88;;;1.23;;
66972;SDS011;53902;51.466;-2.586;2022-12-10T11:19:26;0.88;;;0.82;;
66972;SDS011;53902;51.466;-2.586;2022-12-10T11:21:52;1.70;;;0.63;;
66972;SDS011;53902;51.466;-2.586;2022-12-10T11:24:18;1.02;;;0.98;;
66972;SDS011;53902;51.466;-2.586;2022-12-10T11:40:50;1.92;;;1.70;;
66972;SDS011;53902;51.466;-2.586;2022-12-10T12:00:24;0.68;;;0.68;;
66972;SDS011;53902;51.466;-2.586;2022-12-10T12:14:01;1.10;;;0.73;;
66972;SDS011;53902;51.466;-2.586;2022-12-10T12:16:36;0.65;;;0.60;;
66972;SDS011;53902;51.466;-2.586;2022-12-10T12:19:07;0.80;;;0.80;;
66972;SDS011;53902;51.466;-2.586;2022-12-10T12:21:43;0.50;;;0.50;;
66972;SDS011;53902;51.466;-2.586;2022-12-10T12:24:12;2.08;;;0.80;;
66972;SDS011;53902;51.466;-2.586;2022-12-10T12:26:49;1.42;;;0.88;;
66972;SDS011;53902;51.466;-2.586;2022-12-10T12:29:35;0.80;;;0.80;;
66972;SDS011;53902;51.466;-2.586;2022-12-10T12:32:04;0.57;;;0.57;;
66972;SDS011;53902;51.466;-2.586;2022-12-10T12:37:16;0.65;;;0.65;;
66972;SDS011;53902;51.466;-2.586;2022-12-10T12:45:00;1.02;;;0.80;;
66972;SDS011;53902;51.466;-2.586;2022-12-10T12:49:53;0.68;;;0.68;;
66972;SDS011;53902;51.466;-2.586;2022-12-10T12:54:55;1.98;;;0.95;;
66972;SDS011;53902;51.466;-2.586;2022-12-10T12:57:29;0.57;;;0.57;;
66972;SDS011;53902;51.466;-2.586;2022-12-10T13:00:14;0.63;;;0.63;;
66972;SDS011;53902;51.466;-2.586;2022-12-10T13:02:46;0.68;;;0.68;;
66972;SDS011;53902;51.466;-2.586;2022-12-10T13:05:39;1.23;;;1.08;;
66972;SDS011;53902;51.466;-2.586;2022-12-10T13:10:43;0.60;;;0.60;;
66972;SDS011;53902;51.466;-2.586;2022-12-10T13:13:31;3.03;;;0.73;;
66972;SDS011;53902;51.466;-2.586;2022-12-10T13:34:44;5.93;;;1.52;;
66972;SDS011;53902;51.466;-2.586;2022-12-10T13:39:59;1.13;;;0.73;;
66972;SDS011;53902;51.466;-2.586;2022-12-10T13:42:31;1.67;;;0.85;;
66972;SDS011;53902;51.466;-2.586;2022-12-10T13:47:55;2.80;;;1.10;;
66972;SDS011;53902;51.466;-2.586;2022-12-10T14:01:40;1.17;;;1.08;;
66972;SDS011;53902;51.466;-2.586;2022-12-10T14:06:50;1.98;;;1.25;;
66972;SDS011;53902;51.466;-2.586;2022-12-10T14:09:23;1.88;;;1.20;;
66972;SDS011;53902;51.466;-2.586;2022-12-10T14:14:26;5.07;;;1.27;;
66972;SDS011;53902;51.466;-2.586;2022-12-10T14:16:59;1.35;;;0.90;;
66972;SDS011;53902;51.466;-2.586;2022-12-10T14:19:26;1.08;;;0.82;;
66972;SDS011;53902;51.466;-2.586;2022-12-10T14:21:52;0.70;;;0.70;;
66972;SDS011;53902;51.466;-2.586;2022-12-10T14:24:32;0.82;;;0.77;;
66972;SDS011;53902;51.466;-2.586;2022-12-10T14:27:24;3.20;;;1.38;;
66972;SDS011;53902;51.466;-2.586;2022-12-10T14:29:52;2.92;;;1.30;;
66972;SDS011;53902;51.466;-2.586;2022-12-10T14:32:35;2.25;;;1.50;;
66972;SDS011;53902;51.466;-2.586;2022-12-10T14:35:12;2.08;;;1.88;;
66972;SDS011;53902;51.466;-2.586;2022-12-10T14:37:40;1.73;;;1.10;;
66972;SDS011;53902;51.466;-2.586;2022-12-10T14:40:17;1.83;;;1.30;;
66972;SDS011;53902;51.466;-2.586;2022-12-10T14:42:45;1.15;;;1.05;;
66972;SDS011;53902;51.466;-2.586;2022-12-10T14:45:10;3.13;;;1.50;;
66972;SDS011;53902;51.466;-2.586;2022-12-10T14:47:38;1.33;;;1.23;;
66972;SDS011;53902;51.466;-2.586;2022-12-10T14:50:12;1.50;;;1.30;;
66972;SDS011;53902;51.466;-2.586;2022-12-10T14:52:40;1.15;;;1.05;;
66972;SDS011;53902;51.466;-2.586;2022-12-10T14:55:11;1.45;;;1.30;;
66972;SDS011;53902;51.466;-2.586;2022-12-10T14:57:56;1.67;;;1.13;;
66972;SDS011;53902;51.466;-2.586;2022-12-10T15:00:24;3.25;;;1.20;;
66972;SDS011;53902;51.466;-2.586;2022-12-10T15:03:11;4.13;;;1.80;;
66972;SDS011;53902;51.466;-2.586;2022-12-10T15:05:36;5.68;;;1.50;;
66972;SDS011;53902;51.466;-2.586;2022-12-10T15:08:06;1.25;;;1.15;;
66972;SDS011;53902;51.466;-2.586;2022-12-10T15:10:40;1.33;;;1.02;;
66972;SDS011;53902;51.466;-2.586;2022-12-10T15:13:18;1.70;;;1.50;;
66972;SDS011;53902;51.466;-2.586;2022-12-10T15:15:47;2.85;;;2.03;;
66972;SDS011;53902;51.466;-2.586;2022-12-10T15:18:19;4.07;;;1.50;;
66972;SDS011;53902;51.466;-2.586;2022-12-10T15:20:47;2.10;;;1.75;;
66972;SDS011;53902;51.466;-2.586;2022-12-10T15:23:18;1.42;;;1.33;;
66972;SDS011;53902;51.466;-2.586;2022-12-10T15:25:44;1.73;;;1.40;;
66972;SDS011;53902;51.466;-2.586;2022-12-10T15:28:37;6.78;;;2.30;;
66972;SDS011;53902;51.466;-2.586;2022-12-10T15:36:29;2.10;;;1.60;;
66972;SDS011;53902;51.466;-2.586;2022-12-10T15:38:56;2.58;;;1.73;;
66972;SDS011;53902;51.466;-2.586;2022-12-10T15:47:36;5.65;;;2.40;;
66972;SDS011;53902;51.466;-2.586;2022-12-10T15:49:47;2.88;;;1.98;;
66972;SDS011;53902;51.466;-2.586;2022-12-10T15:52:17;2.60;;;2.25;;
66972;SDS011;53902;51.466;-2.586;2022-12-10T15:54:45;9.25;;;3.40;;
66972;SDS011;53902;51.466;-2.586;2022-12-10T15:57:16;4.82;;;2.92;;
66972;SDS011;53902;51.466;-2.586;2022-12-10T15:59:50;9.82;;;3.60;;
66972;SDS011;53902;51.466;-2.586;2022-12-10T16:04:50;3.58;;;2.63;;
66972;SDS011;53902;51.466;-2.586;2022-12-10T16:07:16;5.55;;;3.20;;
66972;SDS011;53902;51.466;-2.586;2022-12-10T16:09:43;10.43;;;4.18;;
66972;SDS011;53902;51.466;-2.586;2022-12-10T16:12:15;5.30;;;3.05;;
66972;SDS011;53902;51.466;-2.586;2022-12-10T16:14:44;3.63;;;2.55;;
66972;SDS011;53902;51.466;-2.586;2022-12-10T16:17:27;3.38;;;2.97;;
66972;SDS011;53902;51.466;-2.586;2022-12-10T16:22:53;5.03;;;2.85;;
66972;SDS011;53902;51.466;-2.586;2022-12-10T16:25:23;5.82;;;3.17;;
66972;SDS011;53902;51.466;-2.586;2022-12-10T16:27:50;2.33;;;2.13;;
66972;SDS011;53902;51.466;-2.586;2022-12-10T16:30:20;3.90;;;2.30;;
66972;SDS011;53902;51.466;-2.586;2022-12-10T16:32:58;3.20;;;2.88;;
66972;SDS011;53902;51.466;-2.586;2022-12-10T16:35:25;4.47;;;2.85;;
66972;SDS011;53902;51.466;-2.586;2022-12-10T16:37:50;9.85;;;3.17;;
66972;SDS011;53902;51.466;-2.586;2022-12-10T16:40:19;3.35;;;2.65;;
66972;SDS011;53902;51.466;-2.586;2022-12-10T16:42:47;5.07;;;3.58;;
66972;SDS011;53902;51.466;-2.586;2022-12-10T16:45:17;3.55;;;2.97;;
66972;SDS011;53902;51.466;-2.586;2022-12-10T16:47:47;4.65;;;2.90;;
66972;SDS011;53902;51.466;-2.586;2022-12-10T16:50:13;4.75;;;2.38;;
66972;SDS011;53902;51.466;-2.586;2022-12-10T16:52:39;3.78;;;2.53;;
66972;SDS011;53902;51.466;-2.586;2022-12-10T16:55:05;2.13;;;1.98;;
66972;SDS011;53902;51.466;-2.586;2022-12-10T16:57:32;2.47;;;2.00;;
66972;SDS011;53902;51.466;-2.586;2022-12-10T16:59:58;5.32;;;2.85;;
66972;SDS011;53902;51.466;-2.586;2022-12-10T17:02:24;1.60;;;1.40;;
66972;SDS011;53902;51.466;-2.586;2022-12-10T17:04:51;3.95;;;3.30;;
66972;SDS011;53902;51.466;-2.586;2022-12-10T17:07:17;5.20;;;3.50;;
66972;SDS011;53902;51.466;-2.586;2022-12-10T17:09:42;3.53;;;2.72;;
66972;SDS011;53902;51.466;-2.586;2022-12-10T17:12:08;7.18;;;2.83;;
66972;SDS011;53902;51.466;-2.586;2022-12-10T17:14:43;5.70;;;3.90;;
66972;SDS011;53902;51.466;-2.586;2022-12-10T17:17:11;7.05;;;4.35;;
66972;SDS011;53902;51.466;-2.586;2022-12-10T17:19:43;3.33;;;3.03;;
66972;SDS011;53902;51.466;-2.586;2022-12-10T17:22:09;9.73;;;4.70;;
66972;SDS011;53902;51.466;-2.586;2022-12-10T17:24:35;10.85;;;6.57;;
66972;SDS011;53902;51.466;-2.586;2022-12-10T17:27:03;13.70;;;7.22;;
66972;SDS011;53902;51.466;-2.586;2022-12-10T17:29:32;11.15;;;5.63;;
66972;SDS011;53902;51.466;-2.586;2022-12-10T17:32:02;17.02;;;6.05;;